sensor_id;sensor_type;location;lat;lon;timestamp;pressure;altitude;pressure_sealevel;temperature;humidity
2841;BME280;53423;49.224;12.074;2023-03-22T00:02:08;97600.66;;;12.00;63.94
2841;BME280;53423;49.224;12.074;2023-03-22T00:04:35;97597.78;;;11.87;64.66
2841;BME280;53423;49.224;12.074;2023-03-22T00:07:03;97606.72;;;11.78;64.79
2841;BME280;53423;49.224;12.074;2023-03-22T00:09:31;97596.09;;;11.72;64.71
2841;BME280;53423;49.224;12.074;2023-03-22T00:12:01;97603.09;;;11.49;64.46
2841;BME280;53423;49.224;12.074;2023-03-22T00:14:28;97600.63;;;11.47;65.43
2841;BME280;53423;49.224;12.074;2023-03-22T00:16:56;97602.47;;;11.39;64.68
2841;BME280;53423;49.224;12.074;2023-03-22T00:19:24;97605.47;;;11.27;64.69
2841;BME280;53423;49.224;12.074;2023-03-22T00:21:54;97598.47;;;11.20;65.59
2841;BME280;53423;49.224;12.074;2023-03-22T00:24:25;97591.84;;;11.32;65.62
2841;BME280;53423;49.224;12.074;2023-03-22T00:26:53;97596.53;;;11.45;65.38
2841;BME280;53423;49.224;12.074;2023-03-22T00:29:23;97594.72;;;11.45;65.20
2841;BME280;53423;49.224;12.074;2023-03-22T00:31:51;97589.44;;;11.53;64.64
2841;BME280;53423;49.224;12.074;2023-03-22T00:34:19;97586.28;;;11.58;64.79
2841;BME280;53423;49.224;12.074;2023-03-22T00:36:47;97582.09;;;11.49;64.84
2841;BME280;53423;49.224;12.074;2023-03-22T00:39:17;97584.72;;;11.49;64.62
2841;BME280;53423;49.224;12.074;2023-03-22T00:41:45;97585.47;;;11.57;65.35
2841;BME280;53423;49.224;12.074;2023-03-22T00:44:13;97588.97;;;11.50;65.02
2841;BME280;53423;49.224;12.074;2023-03-22T00:46:42;97585.34;;;11.51;65.71
2841;BME280;53423;49.224;12.074;2023-03-22T00:49:10;97585.97;;;11.53;65.54
2841;BME280;53423;49.224;12.074;2023-03-22T00:51:38;97590.94;;;11.48;65.18
2841;BME280;53423;49.224;12.074;2023-03-22T00:54:06;97587.22;;;11.42;65.41
2841;BME280;53423;49.224;12.074;2023-03-22T00:56:34;97571.78;;;11.39;65.07
2841;BME280;53423;49.224;12.074;2023-03-22T00:59:03;97580.34;;;11.33;65.96
2841;BME280;53423;49.224;12.074;2023-03-22T01:01:31;97576.47;;;11.21;66.28
2841;BME280;53423;49.224;12.074;2023-03-22T01:04:01;97571.75;;;11.16;66.63
2841;BME280;53423;49.224;12.074;2023-03-22T01:06:30;97567.94;;;11.19;66.21
2841;BME280;53423;49.224;12.074;2023-03-22T01:08:58;97567.34;;;11.40;64.78
2841;BME280;53423;49.224;12.074;2023-03-22T01:11:26;97565.13;;;11.28;65.15
2841;BME280;53423;49.224;12.074;2023-03-22T01:13:54;97551.53;;;11.25;65.38
2841;BME280;53423;49.224;12.074;2023-03-22T01:16:22;97552.69;;;11.22;65.08
2841;BME280;53423;49.224;12.074;2023-03-22T01:18:50;97553.81;;;11.28;65.07
2841;BME280;53423;49.224;12.074;2023-03-22T01:21:20;97549.44;;;11.20;64.83
2841;BME280;53423;49.224;12.074;2023-03-22T01:23:47;97547.44;;;11.22;65.55
2841;BME280;53423;49.224;12.074;2023-03-22T01:26:15;97547.72;;;11.27;64.52
2841;BME280;53423;49.224;12.074;2023-03-22T01:28:43;97540.38;;;11.23;65.30
2841;BME280;53423;49.224;12.074;2023-03-22T01:31:11;97547.13;;;11.17;64.20
2841;BME280;53423;49.224;12.074;2023-03-22T01:33:39;97549.56;;;10.88;64.69
2841;BME280;53423;49.224;12.074;2023-03-22T01:36:07;97555.66;;;10.73;65.45
2841;BME280;53423;49.224;12.074;2023-03-22T01:38:37;97554.81;;;10.80;65.17
2841;BME280;53423;49.224;12.074;2023-03-22T01:41:05;97553.69;;;10.75;65.48
2841;BME280;53423;49.224;12.074;2023-03-22T01:43:33;97553.31;;;10.86;65.54
2841;BME280;53423;49.224;12.074;2023-03-22T01:46:01;97553.66;;;10.83;65.60
2841;BME280;53423;49.224;12.074;2023-03-22T01:48:30;97547.31;;;10.69;65.09
2841;BME280;53423;49.224;12.074;2023-03-22T01:51:06;97545.38;;;10.55;65.51
2841;BME280;53423;49.224;12.074;2023-03-22T01:53:39;97538.56;;;10.38;65.84
2841;BME280;53423;49.224;12.074;2023-03-22T01:56:09;97534.41;;;10.52;66.42
2841;BME280;53423;49.224;12.074;2023-03-22T01:58:38;97532.63;;;10.52;66.81
2841;BME280;53423;49.224;12.074;2023-03-22T02:01:08;97526.41;;;10.53;66.54
2841;BME280;53423;49.224;12.074;2023-03-22T02:03:42;97525.69;;;10.67;66.11
2841;BME280;53423;49.224;12.074;2023-03-22T02:06:11;97527.19;;;10.70;65.91
2841;BME280;53423;49.224;12.074;2023-03-22T02:08:41;97517.34;;;10.64;65.96
2841;BME280;53423;49.224;12.074;2023-03-22T02:11:12;97519.31;;;10.62;66.18
2841;BME280;53423;49.224;12.074;2023-03-22T02:16:54;97527.59;;;10.89;65.96
2841;BME280;53423;49.224;12.074;2023-03-22T02:29:13;97504.59;;;10.61;66.56
2841;BME280;53423;49.224;12.074;2023-03-22T02:32:10;97504.50;;;10.38;66.63
2841;BME280;53423;49.224;12.074;2023-03-22T02:35:08;97507.78;;;10.32;67.07
2841;BME280;53423;49.224;12.074;2023-03-22T02:38:00;97506.25;;;10.54;66.93
2841;BME280;53423;49.224;12.074;2023-03-22T02:40:39;97504.25;;;10.72;66.40
2841;BME280;53423;49.224;12.074;2023-03-22T02:43:16;97498.88;;;10.57;66.51
2841;BME280;53423;49.224;12.074;2023-03-22T02:45:52;97501.22;;;10.36;67.48
2841;BME280;53423;49.224;12.074;2023-03-22T02:48:26;97508.91;;;10.38;67.68
2841;BME280;53423;49.224;12.074;2023-03-22T02:51:00;97503.19;;;10.34;67.58
2841;BME280;53423;49.224;12.074;2023-03-22T02:53:35;97497.97;;;10.18;67.64
2841;BME280;53423;49.224;12.074;2023-03-22T02:56:10;97494.84;;;10.31;67.32
2841;BME280;53423;49.224;12.074;2023-03-22T02:58:43;97490.41;;;10.39;67.50
2841;BME280;53423;49.224;12.074;2023-03-22T03:01:14;97501.22;;;10.44;67.21
2841;BME280;53423;49.224;12.074;2023-03-22T03:03:46;97501.22;;;10.36;66.70
2841;BME280;53423;49.224;12.074;2023-03-22T03:06:19;97500.59;;;10.26;67.24
2841;BME280;53423;49.224;12.074;2023-03-22T03:08:52;97491.53;;;10.37;66.94
2841;BME280;53423;49.224;12.074;2023-03-22T03:11:24;97492.72;;;10.34;66.56
2841;BME280;53423;49.224;12.074;2023-03-22T03:13:52;97498.28;;;10.23;66.29
2841;BME280;53423;49.224;12.074;2023-03-22T03:16:23;97493.88;;;10.07;66.61
2841;BME280;53423;49.224;12.074;2023-03-22T03:18:58;97496.00;;;10.04;67.26
2841;BME280;53423;49.224;12.074;2023-03-22T03:21:32;97498.31;;;9.99;67.41
2841;BME280;53423;49.224;12.074;2023-03-22T03:24:16;97499.47;;;10.13;67.11
2841;BME280;53423;49.224;12.074;2023-03-22T03:26:53;97496.34;;;10.33;66.95
2841;BME280;53423;49.224;12.074;2023-03-22T03:29:30;97496.13;;;10.43;66.80
2841;BME280;53423;49.224;12.074;2023-03-22T03:32:03;97502.03;;;10.45;66.65
2841;BME280;53423;49.224;12.074;2023-03-22T03:34:38;97503.78;;;10.52;66.94
2841;BME280;53423;49.224;12.074;2023-03-22T03:37:12;97499.72;;;10.42;66.84
2841;BME280;53423;49.224;12.074;2023-03-22T03:39:47;97498.66;;;10.12;65.53
2841;BME280;53423;49.224;12.074;2023-03-22T03:42:20;97505.03;;;9.85;67.25
2841;BME280;53423;49.224;12.074;2023-03-22T03:44:49;97510.56;;;9.74;66.88
2841;BME280;53423;49.224;12.074;2023-03-22T03:47:17;97515.63;;;9.60;67.30
2841;BME280;53423;49.224;12.074;2023-03-22T03:49:46;97507.28;;;9.48;67.37
2841;BME280;53423;49.224;12.074;2023-03-22T03:52:14;97506.13;;;9.35;66.52
2841;BME280;53423;49.224;12.074;2023-03-22T03:54:42;97510.19;;;9.29;67.36
2841;BME280;53423;49.224;12.074;2023-03-22T03:57:11;97509.06;;;9.48;67.14
2841;BME280;53423;49.224;12.074;2023-03-22T03:59:40;97507.78;;;9.52;67.60
2841;BME280;53423;49.224;12.074;2023-03-22T04:02:08;97511.06;;;9.54;67.84
2841;BME280;53423;49.224;12.074;2023-03-22T04:04:36;97504.50;;;9.42;66.87
2841;BME280;53423;49.224;12.074;2023-03-22T04:07:05;97499.88;;;9.12;64.57
2841;BME280;53423;49.224;12.074;2023-03-22T04:09:34;97498.09;;;9.12;66.02
2841;BME280;53423;49.224;12.074;2023-03-22T04:12:03;97500.97;;;9.01;66.74
2841;BME280;53423;49.224;12.074;2023-03-22T04:14:31;97503.91;;;8.98;66.97
2841;BME280;53423;49.224;12.074;2023-03-22T04:17:00;97506.19;;;8.93;67.30
2841;BME280;53423;49.224;12.074;2023-03-22T04:19:28;97509.91;;;8.91;67.37
2841;BME280;53423;49.224;12.074;2023-03-22T04:21:56;97520.25;;;8.58;66.71
2841;BME280;53423;49.224;12.074;2023-03-22T04:24:26;97513.56;;;8.30;64.69
2841;BME280;53423;49.224;12.074;2023-03-22T04:26:54;97513.63;;;8.21;65.08
2841;BME280;53423;49.224;12.074;2023-03-22T04:29:22;97509.16;;;8.56;64.91
2841;BME280;53423;49.224;12.074;2023-03-22T04:31:50;97504.16;;;8.79;66.59
2841;BME280;53423;49.224;12.074;2023-03-22T04:34:20;97501.97;;;9.00;67.47
2841;BME280;53423;49.224;12.074;2023-03-22T04:36:47;97502.16;;;9.15;68.31
2841;BME280;53423;49.224;12.074;2023-03-22T04:39:16;97502.66;;;9.18;68.64
2841;BME280;53423;49.224;12.074;2023-03-22T04:41:44;97511.19;;;9.28;68.33
2841;BME280;53423;49.224;12.074;2023-03-22T04:44:12;97508.75;;;9.35;68.47
2841;BME280;53423;49.224;12.074;2023-03-22T04:46:40;97502.66;;;9.26;67.32
2841;BME280;53423;49.224;12.074;2023-03-22T04:49:09;97507.38;;;9.15;67.29
2841;BME280;53423;49.224;12.074;2023-03-22T04:51:38;97508.84;;;9.09;67.23
2841;BME280;53423;49.224;12.074;2023-03-22T04:54:06;97506.53;;;9.06;66.95
2841;BME280;53423;49.224;12.074;2023-03-22T04:56:34;97509.31;;;9.05;67.97
2841;BME280;53423;49.224;12.074;2023-03-22T04:59:02;97503.25;;;9.04;68.33
2841;BME280;53423;49.224;12.074;2023-03-22T05:01:30;97513.44;;;9.07;68.55
2841;BME280;53423;49.224;12.074;2023-03-22T05:03:58;97509.66;;;9.02;68.83
2841;BME280;53423;49.224;12.074;2023-03-22T05:06:26;97510.09;;;8.97;68.10
2841;BME280;53423;49.224;12.074;2023-03-22T05:08:55;97505.69;;;8.98;67.72
2841;BME280;53423;49.224;12.074;2023-03-22T05:11:23;97507.47;;;8.89;67.76
2841;BME280;53423;49.224;12.074;2023-03-22T05:13:53;97513.47;;;8.73;67.20
2841;BME280;53423;49.224;12.074;2023-03-22T05:16:21;97515.28;;;8.81;67.87
2841;BME280;53423;49.224;12.074;2023-03-22T05:18:50;97513.69;;;8.96;68.08
2841;BME280;53423;49.224;12.074;2023-03-22T05:21:21;97511.28;;;9.03;68.29
2841;BME280;53423;49.224;12.074;2023-03-22T05:23:56;97513.38;;;8.99;68.39
2841;BME280;53423;49.224;12.074;2023-03-22T05:26:25;97518.44;;;8.59;66.92
2841;BME280;53423;49.224;12.074;2023-03-22T05:28:53;97519.53;;;8.48;66.55
2841;BME280;53423;49.224;12.074;2023-03-22T05:31:21;97521.22;;;8.32;68.13
2841;BME280;53423;49.224;12.074;2023-03-22T05:33:50;97526.09;;;8.27;66.99
2841;BME280;53423;49.224;12.074;2023-03-22T05:36:20;97522.94;;;8.41;66.82
2841;BME280;53423;49.224;12.074;2023-03-22T05:38:49;97522.09;;;8.15;66.41
2841;BME280;53423;49.224;12.074;2023-03-22T05:41:18;97531.72;;;8.14;66.33
2841;BME280;53423;49.224;12.074;2023-03-22T05:43:46;97528.63;;;8.19;66.79
2841;BME280;53423;49.224;12.074;2023-03-22T05:46:14;97528.28;;;8.14;67.14
2841;BME280;53423;49.224;12.074;2023-03-22T05:48:42;97525.28;;;8.09;66.47
2841;BME280;53423;49.224;12.074;2023-03-22T05:51:11;97519.91;;;8.28;66.79
2841;BME280;53423;49.224;12.074;2023-03-22T05:53:43;97518.03;;;8.38;66.81
2841;BME280;53423;49.224;12.074;2023-03-22T05:56:11;97519.50;;;8.74;66.63
2841;BME280;53423;49.224;12.074;2023-03-22T05:58:41;97522.06;;;9.00;65.37
2841;BME280;53423;49.224;12.074;2023-03-22T06:01:10;97513.56;;;9.06;66.28
2841;BME280;53423;49.224;12.074;2023-03-22T06:03:39;97515.72;;;9.18;66.68
2841;BME280;53423;49.224;12.074;2023-03-22T06:06:08;97510.06;;;9.55;65.65
2841;BME280;53423;49.224;12.074;2023-03-22T06:08:37;97514.97;;;9.98;65.12
2841;BME280;53423;49.224;12.074;2023-03-22T06:11:06;97516.81;;;10.30;64.64
2841;BME280;53423;49.224;12.074;2023-03-22T06:13:34;97517.97;;;10.82;64.06
2841;BME280;53423;49.224;12.074;2023-03-22T06:16:06;97513.00;;;11.25;62.86
2841;BME280;53423;49.224;12.074;2023-03-22T06:18:34;97518.44;;;11.77;61.22
2841;BME280;53423;49.224;12.074;2023-03-22T06:21:02;97518.00;;;12.11;59.34
2841;BME280;53423;49.224;12.074;2023-03-22T06:23:30;97518.03;;;12.40;58.92
2841;BME280;53423;49.224;12.074;2023-03-22T06:25:58;97513.44;;;12.71;57.96
2841;BME280;53423;49.224;12.074;2023-03-22T06:28:26;97510.53;;;12.95;57.50
2841;BME280;53423;49.224;12.074;2023-03-22T06:30:55;97513.09;;;13.39;55.77
2841;BME280;53423;49.224;12.074;2023-03-22T06:33:25;97512.94;;;13.83;54.63
2841;BME280;53423;49.224;12.074;2023-03-22T06:35:52;97512.41;;;13.51;55.13
2841;BME280;53423;49.224;12.074;2023-03-22T06:38:20;97511.59;;;13.51;55.34
2841;BME280;53423;49.224;12.074;2023-03-22T06:40:48;97501.38;;;13.41;55.50
2841;BME280;53423;49.224;12.074;2023-03-22T06:43:16;97515.03;;;13.30;56.27
2841;BME280;53423;49.224;12.074;2023-03-22T06:45:44;97521.25;;;13.44;55.95
2841;BME280;53423;49.224;12.074;2023-03-22T06:48:13;97520.25;;;13.45;55.22
2841;BME280;53423;49.224;12.074;2023-03-22T06:50:43;97515.78;;;13.10;56.45
2841;BME280;53423;49.224;12.074;2023-03-22T06:53:11;97523.88;;;13.08;56.33
2841;BME280;53423;49.224;12.074;2023-03-22T06:55:39;97519.03;;;12.97;57.08
2841;BME280;53423;49.224;12.074;2023-03-22T06:58:07;97524.75;;;13.01;56.36
2841;BME280;53423;49.224;12.074;2023-03-22T07:00:35;97530.00;;;13.01;57.45
2841;BME280;53423;49.224;12.074;2023-03-22T07:03:04;97524.59;;;12.73;57.82
2841;BME280;53423;49.224;12.074;2023-03-22T07:05:32;97523.59;;;12.60;58.06
2841;BME280;53423;49.224;12.074;2023-03-22T07:08:01;97518.69;;;13.15;57.52
2841;BME280;53423;49.224;12.074;2023-03-22T07:10:32;97524.03;;;13.21;56.95
2841;BME280;53423;49.224;12.074;2023-03-22T07:13:00;97524.84;;;13.07;56.99
2841;BME280;53423;49.224;12.074;2023-03-22T07:15:29;97526.88;;;13.41;56.62
2841;BME280;53423;49.224;12.074;2023-03-22T07:17:58;97519.16;;;13.39;56.47
2841;BME280;53423;49.224;12.074;2023-03-22T07:20:26;97516.19;;;14.06;55.17
2841;BME280;53423;49.224;12.074;2023-03-22T07:22:54;97518.03;;;14.60;53.36
2841;BME280;53423;49.224;12.074;2023-03-22T07:25:24;97507.72;;;14.65;53.06
2841;BME280;53423;49.224;12.074;2023-03-22T07:27:52;97507.00;;;15.25;51.91
2841;BME280;53423;49.224;12.074;2023-03-22T07:30:20;97512.25;;;15.19;50.75
2841;BME280;53423;49.224;12.074;2023-03-22T07:32:47;97511.53;;;15.44;51.76
2841;BME280;53423;49.224;12.074;2023-03-22T07:35:16;97503.50;;;16.04;49.97
2841;BME280;53423;49.224;12.074;2023-03-22T07:37:44;97510.63;;;16.37;48.86
2841;BME280;53423;49.224;12.074;2023-03-22T07:40:14;97504.88;;;16.85;47.15
2841;BME280;53423;49.224;12.074;2023-03-22T07:42:43;97504.41;;;17.08;46.83
2841;BME280;53423;49.224;12.074;2023-03-22T07:45:11;97502.50;;;17.72;45.55
2841;BME280;53423;49.224;12.074;2023-03-22T07:47:39;97510.44;;;17.28;45.80
2841;BME280;53423;49.224;12.074;2023-03-22T07:50:08;97507.53;;;17.80;45.47
2841;BME280;53423;49.224;12.074;2023-03-22T07:52:37;97507.72;;;18.10;44.19
2841;BME280;53423;49.224;12.074;2023-03-22T07:55:05;97499.59;;;18.05;45.12
2841;BME280;53423;49.224;12.074;2023-03-22T07:57:34;97506.78;;;18.53;43.59
2841;BME280;53423;49.224;12.074;2023-03-22T08:00:05;97498.88;;;18.90;43.75
2841;BME280;53423;49.224;12.074;2023-03-22T08:02:34;97494.28;;;19.33;41.79
2841;BME280;53423;49.224;12.074;2023-03-22T08:05:03;97498.47;;;19.22;41.66
2841;BME280;53423;49.224;12.074;2023-03-22T08:07:32;97494.34;;;19.08;41.32
2841;BME280;53423;49.224;12.074;2023-03-22T08:10:00;97498.56;;;19.34;42.36
2841;BME280;53423;49.224;12.074;2023-03-22T08:12:28;97493.69;;;19.13;41.02
2841;BME280;53423;49.224;12.074;2023-03-22T08:14:58;97502.31;;;19.26;41.26
2841;BME280;53423;49.224;12.074;2023-03-22T08:17:27;97496.97;;;20.04;40.29
2841;BME280;53423;49.224;12.074;2023-03-22T08:19:55;97491.28;;;20.53;40.37
2841;BME280;53423;49.224;12.074;2023-03-22T08:22:23;97502.03;;;20.58;40.33
2841;BME280;53423;49.224;12.074;2023-03-22T08:24:55;97496.44;;;20.94;37.74
2841;BME280;53423;49.224;12.074;2023-03-22T08:27:23;97492.88;;;20.54;38.91
2841;BME280;53423;49.224;12.074;2023-03-22T08:29:51;97492.06;;;20.42;38.93
2841;BME280;53423;49.224;12.074;2023-03-22T08:32:19;97488.50;;;20.59;37.89
2841;BME280;53423;49.224;12.074;2023-03-22T08:34:49;97477.94;;;21.27;37.54
2841;BME280;53423;49.224;12.074;2023-03-22T08:37:18;97480.81;;;20.98;38.29
2841;BME280;53423;49.224;12.074;2023-03-22T08:39:47;97486.84;;;20.93;37.46
2841;BME280;53423;49.224;12.074;2023-03-22T08:42:15;97490.28;;;20.93;37.71
2841;BME280;53423;49.224;12.074;2023-03-22T08:44:42;97488.94;;;21.03;36.87
2841;BME280;53423;49.224;12.074;2023-03-22T08:47:12;97483.13;;;21.45;35.56
2841;BME280;53423;49.224;12.074;2023-03-22T08:49:40;97476.16;;;22.00;35.90
2841;BME280;53423;49.224;12.074;2023-03-22T08:52:10;97482.78;;;21.98;35.86
2841;BME280;53423;49.224;12.074;2023-03-22T08:54:38;97475.47;;;21.77;34.48
2841;BME280;53423;49.224;12.074;2023-03-22T08:57:06;97475.81;;;21.80;34.48
2841;BME280;53423;49.224;12.074;2023-03-22T08:59:35;97477.22;;;21.71;34.69
2841;BME280;53423;49.224;12.074;2023-03-22T09:02:03;97473.72;;;22.65;32.90
2841;BME280;53423;49.224;12.074;2023-03-22T09:04:32;97468.56;;;22.26;34.39
2841;BME280;53423;49.224;12.074;2023-03-22T09:07:00;97460.28;;;22.60;32.53
2841;BME280;53423;49.224;12.074;2023-03-22T09:09:29;97463.94;;;22.92;33.75
2841;BME280;53423;49.224;12.074;2023-03-22T09:11:57;97460.59;;;22.64;32.74
2841;BME280;53423;49.224;12.074;2023-03-22T09:14:25;97458.09;;;22.95;32.58
2841;BME280;53423;49.224;12.074;2023-03-22T09:16:53;97450.44;;;23.47;31.71
2841;BME280;53423;49.224;12.074;2023-03-22T09:19:21;97446.81;;;23.31;31.66
2841;BME280;53423;49.224;12.074;2023-03-22T09:21:49;97447.22;;;23.02;32.13
2841;BME280;53423;49.224;12.074;2023-03-22T09:24:17;97446.81;;;22.93;32.08
2841;BME280;53423;49.224;12.074;2023-03-22T09:26:46;97434.47;;;23.09;31.60
2841;BME280;53423;49.224;12.074;2023-03-22T09:29:14;97443.25;;;24.01;30.53
2841;BME280;53423;49.224;12.074;2023-03-22T09:31:42;97436.13;;;24.16;30.28
2841;BME280;53423;49.224;12.074;2023-03-22T09:34:14;97434.78;;;24.14;28.93
2841;BME280;53423;49.224;12.074;2023-03-22T09:36:43;97432.88;;;24.93;28.54
2841;BME280;53423;49.224;12.074;2023-03-22T09:39:11;97427.75;;;25.58;28.89
2841;BME280;53423;49.224;12.074;2023-03-22T09:41:47;97428.50;;;24.77;28.66
2841;BME280;53423;49.224;12.074;2023-03-22T09:44:20;97421.72;;;25.21;29.49
2841;BME280;53423;49.224;12.074;2023-03-22T09:46:53;97418.75;;;24.61;30.47
2841;BME280;53423;49.224;12.074;2023-03-22T09:49:26;97419.72;;;23.81;29.23
2841;BME280;53423;49.224;12.074;2023-03-22T09:51:55;97428.63;;;23.87;29.27
2841;BME280;53423;49.224;12.074;2023-03-22T09:54:31;97412.84;;;23.90;30.23
2841;BME280;53423;49.224;12.074;2023-03-22T09:57:04;97415.59;;;24.32;28.97
2841;BME280;53423;49.224;12.074;2023-03-22T09:59:39;97404.16;;;25.90;27.91
2841;BME280;53423;49.224;12.074;2023-03-22T10:02:26;97400.91;;;25.53;26.19
2841;BME280;53423;49.224;12.074;2023-03-22T10:05:03;97398.38;;;25.21;27.81
2841;BME280;53423;49.224;12.074;2023-03-22T10:10:39;97394.13;;;23.37;27.79
2841;BME280;53423;49.224;12.074;2023-03-22T10:13:16;97397.34;;;23.92;27.70
2841;BME280;53423;49.224;12.074;2023-03-22T10:15:46;97386.59;;;24.66;26.87
2841;BME280;53423;49.224;12.074;2023-03-22T10:18:18;97389.38;;;25.98;26.48
2841;BME280;53423;49.224;12.074;2023-03-22T10:20:51;97377.28;;;25.75;25.54
2841;BME280;53423;49.224;12.074;2023-03-22T10:23:27;97383.72;;;25.84;24.59
2841;BME280;53423;49.224;12.074;2023-03-22T10:25:57;97376.44;;;25.49;24.75
2841;BME280;53423;49.224;12.074;2023-03-22T10:28:33;97381.84;;;25.69;24.96
2841;BME280;53423;49.224;12.074;2023-03-22T10:31:04;97361.72;;;25.87;23.51
2841;BME280;53423;49.224;12.074;2023-03-22T10:33:37;97381.03;;;25.64;27.63
2841;BME280;53423;49.224;12.074;2023-03-22T10:36:08;97381.06;;;23.67;28.74
2841;BME280;53423;49.224;12.074;2023-03-22T10:38:44;97388.59;;;24.38;30.38
2841;BME280;53423;49.224;12.074;2023-03-22T10:41:16;97373.22;;;25.52;27.94
2841;BME280;53423;49.224;12.074;2023-03-22T10:43:49;97367.88;;;25.98;27.33
2841;BME280;53423;49.224;12.074;2023-03-22T10:46:20;97367.63;;;26.04;26.94
2841;BME280;53423;49.224;12.074;2023-03-22T10:48:50;97377.56;;;25.89;27.34
2841;BME280;53423;49.224;12.074;2023-03-22T10:51:25;97380.09;;;23.25;29.89
2841;BME280;53423;49.224;12.074;2023-03-22T10:53:55;97373.75;;;24.68;27.22
2841;BME280;53423;49.224;12.074;2023-03-22T10:56:25;97367.06;;;25.47;26.91
2841;BME280;53423;49.224;12.074;2023-03-22T10:58:55;97368.44;;;26.15;25.16
2841;BME280;53423;49.224;12.074;2023-03-22T11:01:25;97357.94;;;25.93;25.58
2841;BME280;53423;49.224;12.074;2023-03-22T11:03:56;97363.75;;;25.15;26.16
2841;BME280;53423;49.224;12.074;2023-03-22T11:06:26;97353.38;;;25.89;25.56
2841;BME280;53423;49.224;12.074;2023-03-22T11:09:01;97361.16;;;25.60;25.76
2841;BME280;53423;49.224;12.074;2023-03-22T11:11:31;97357.13;;;25.67;24.79
2841;BME280;53423;49.224;12.074;2023-03-22T11:14:05;97356.50;;;23.75;28.43
2841;BME280;53423;49.224;12.074;2023-03-22T11:16:41;97350.47;;;23.58;27.24
2841;BME280;53423;49.224;12.074;2023-03-22T11:19:14;97340.63;;;24.99;26.77
2841;BME280;53423;49.224;12.074;2023-03-22T11:21:44;97349.97;;;22.86;29.28
2841;BME280;53423;49.224;12.074;2023-03-22T11:24:13;97341.31;;;22.19;33.06
2841;BME280;53423;49.224;12.074;2023-03-22T11:26:41;97338.03;;;23.20;30.24
2841;BME280;53423;49.224;12.074;2023-03-22T11:29:15;97326.97;;;23.65;29.14
2841;BME280;53423;49.224;12.074;2023-03-22T11:31:56;97324.25;;;24.33;27.79
2841;BME280;53423;49.224;12.074;2023-03-22T11:34:26;97327.78;;;25.11;25.91
2841;BME280;53423;49.224;12.074;2023-03-22T11:36:54;97322.34;;;24.81;27.52
2841;BME280;53423;49.224;12.074;2023-03-22T11:39:27;97318.47;;;25.53;26.02
2841;BME280;53423;49.224;12.074;2023-03-22T11:41:57;97317.34;;;26.00;25.43
2841;BME280;53423;49.224;12.074;2023-03-22T11:44:31;97310.66;;;26.17;26.91
2841;BME280;53423;49.224;12.074;2023-03-22T11:47:02;97303.66;;;26.11;25.24
2841;BME280;53423;49.224;12.074;2023-03-22T11:49:37;97294.50;;;25.17;24.55
2841;BME280;53423;49.224;12.074;2023-03-22T11:52:08;97299.13;;;25.82;25.79
2841;BME280;53423;49.224;12.074;2023-03-22T11:54:38;97282.06;;;24.71;26.37
2841;BME280;53423;49.224;12.074;2023-03-22T11:57:13;97298.97;;;24.19;28.93
2841;BME280;53423;49.224;12.074;2023-03-22T11:59:49;97297.75;;;23.95;27.62
2841;BME280;53423;49.224;12.074;2023-03-22T12:02:24;97288.06;;;24.98;26.36
2841;BME280;53423;49.224;12.074;2023-03-22T12:04:57;97296.41;;;25.21;25.56
2841;BME280;53423;49.224;12.074;2023-03-22T12:07:29;97282.44;;;25.09;24.77
2841;BME280;53423;49.224;12.074;2023-03-22T12:10:02;97275.78;;;25.67;23.50
2841;BME280;53423;49.224;12.074;2023-03-22T12:12:34;97275.53;;;25.38;25.21
2841;BME280;53423;49.224;12.074;2023-03-22T12:15:12;97270.38;;;25.87;25.29
2841;BME280;53423;49.224;12.074;2023-03-22T12:17:46;97264.78;;;25.68;24.94
2841;BME280;53423;49.224;12.074;2023-03-22T12:22:49;97257.72;;;24.87;24.38
2841;BME280;53423;49.224;12.074;2023-03-22T12:25:21;97255.06;;;25.32;25.77
2841;BME280;53423;49.224;12.074;2023-03-22T12:27:53;97254.03;;;25.33;26.26
2841;BME280;53423;49.224;12.074;2023-03-22T12:30:26;97246.75;;;25.19;26.31
2841;BME280;53423;49.224;12.074;2023-03-22T12:32:58;97241.59;;;24.77;26.88
2841;BME280;53423;49.224;12.074;2023-03-22T12:35:30;97249.66;;;24.92;25.78
2841;BME280;53423;49.224;12.074;2023-03-22T12:38:08;97242.91;;;24.65;25.61
2841;BME280;53423;49.224;12.074;2023-03-22T12:40:40;97235.31;;;24.46;26.44
2841;BME280;53423;49.224;12.074;2023-03-22T12:43:13;97231.13;;;24.71;25.24
2841;BME280;53423;49.224;12.074;2023-03-22T12:45:47;97233.88;;;25.06;25.96
2841;BME280;53423;49.224;12.074;2023-03-22T12:48:20;97231.16;;;24.96;25.31
2841;BME280;53423;49.224;12.074;2023-03-22T12:50:55;97230.03;;;24.72;25.80
2841;BME280;53423;49.224;12.074;2023-03-22T12:53:27;97232.78;;;25.02;26.10
2841;BME280;53423;49.224;12.074;2023-03-22T12:55:57;97234.13;;;24.89;25.49
2841;BME280;53423;49.224;12.074;2023-03-22T12:58:26;97235.19;;;24.88;26.04
2841;BME280;53423;49.224;12.074;2023-03-22T13:00:58;97236.00;;;25.04;25.54
2841;BME280;53423;49.224;12.074;2023-03-22T13:03:35;97240.69;;;23.95;27.07
2841;BME280;53423;49.224;12.074;2023-03-22T13:06:05;97239.56;;;23.91;26.86
2841;BME280;53423;49.224;12.074;2023-03-22T13:09:11;97217.91;;;24.44;26.43
2841;BME280;53423;49.224;12.074;2023-03-22T13:11:43;97218.66;;;24.34;26.74
2841;BME280;53423;49.224;12.074;2023-03-22T13:17:43;97219.22;;;24.41;25.84
2841;BME280;53423;49.224;12.074;2023-03-22T13:20:21;97215.16;;;24.29;26.38
2841;BME280;53423;49.224;12.074;2023-03-22T13:23:09;97207.91;;;24.24;26.91
2841;BME280;53423;49.224;12.074;2023-03-22T13:25:38;97214.13;;;24.40;25.65
2841;BME280;53423;49.224;12.074;2023-03-22T13:28:25;97216.44;;;23.70;25.13
2841;BME280;53423;49.224;12.074;2023-03-22T13:30:56;97222.69;;;23.80;25.35
2841;BME280;53423;49.224;12.074;2023-03-22T13:33:27;97214.34;;;24.28;26.36
2841;BME280;53423;49.224;12.074;2023-03-22T13:35:57;97201.25;;;24.37;24.80
2841;BME280;53423;49.224;12.074;2023-03-22T13:38:29;97204.22;;;24.40;24.99
2841;BME280;53423;49.224;12.074;2023-03-22T13:41:02;97203.72;;;23.92;25.11
2841;BME280;53423;49.224;12.074;2023-03-22T13:43:32;97212.50;;;22.07;27.42